createdAt,value
2023-05-13T03:42:58.918Z,7.98
2023-05-13T03:43:58.907Z,8.28
2023-05-13T03:44:58.889Z,8.27
2023-05-13T03:45:58.886Z,8.05
2023-05-13T03:46:58.942Z,8.27
2023-05-13T03:47:58.912Z,8.05
2023-05-13T03:48:58.864Z,8.37
2023-05-13T03:49:58.839Z,8.54
2023-05-13T03:50:58.828Z,8.37
2023-05-13T03:51:58.817Z,8.93
2023-05-13T03:52:58.809Z,8.54
2023-05-13T03:53:58.803Z,8.26
2023-05-13T03:54:58.788Z,8.88
2023-05-13T03:55:58.787Z,8.63
2023-05-13T03:56:58.765Z,8.68
2023-05-13T03:57:58.756Z,8.85
2023-05-13T03:58:58.754Z,8.61
2023-05-13T03:59:58.737Z,8.52
2023-05-13T04:00:58.733Z,8.91
2023-05-13T04:01:58.747Z,8.60
2023-05-13T04:02:58.832Z,8.88
2023-05-13T04:03:58.715Z,8.58
2023-05-13T04:04:58.717Z,8.39
2023-05-13T04:05:58.675Z,8.50
2023-05-13T04:06:58.662Z,8.86
2023-05-13T04:07:58.655Z,8.52
2023-05-13T04:08:58.646Z,8.67
2023-05-13T04:09:58.634Z,8.64
2023-05-13T04:10:58.617Z,8.89
2023-05-13T04:11:58.613Z,8.75
2023-05-13T04:12:58.806Z,9.07
2023-05-13T04:13:58.599Z,8.45
2023-05-13T04:14:58.581Z,8.75
2023-05-13T04:15:58.571Z,8.28
2023-05-13T04:16:58.705Z,8.55
2023-05-13T04:17:58.624Z,8.79
2023-05-13T04:18:58.633Z,8.50
2023-05-13T04:19:58.553Z,8.58
2023-05-13T04:20:58.527Z,8.20
2023-05-13T04:21:58.508Z,8.71
2023-05-13T04:22:58.496Z,8.79
2023-05-13T04:23:58.485Z,8.97
2023-05-13T04:24:58.475Z,8.65
2023-05-13T04:25:58.469Z,9.11
2023-05-13T04:27:01.201Z,9.15
2023-05-13T04:27:58.444Z,8.64
2023-05-13T04:28:58.441Z,8.70
2023-05-13T04:29:58.426Z,8.97
2023-05-13T04:30:58.414Z,9.33
2023-05-13T04:31:58.472Z,8.55
2023-05-13T04:32:58.468Z,9.43
2023-05-13T04:33:58.383Z,8.60
2023-05-13T04:34:58.369Z,9.33
2023-05-13T04:35:58.383Z,8.73
2023-05-13T04:36:58.346Z,8.68
2023-05-13T04:37:58.340Z,8.97
2023-05-13T04:38:58.343Z,9.03
2023-05-13T04:39:58.319Z,8.93
2023-05-13T04:40:58.306Z,8.73
2023-05-13T04:41:58.296Z,8.75
2023-05-13T04:42:58.291Z,8.71
2023-05-13T04:43:58.276Z,8.88
2023-05-13T04:44:58.267Z,9.00
2023-05-13T04:45:58.275Z,8.35
2023-05-13T04:46:58.247Z,9.00
2023-05-13T04:47:58.647Z,8.97
2023-05-13T04:48:58.222Z,8.88
2023-05-13T04:49:58.225Z,9.30
2023-05-13T04:50:58.207Z,9.01
2023-05-13T04:51:58.216Z,9.09
2023-05-13T04:52:58.185Z,8.76
2023-05-13T04:53:58.174Z,9.07
2023-05-13T04:54:58.167Z,9.19
2023-05-13T04:55:58.352Z,9.31
2023-05-13T04:56:58.144Z,9.22
2023-05-13T04:57:58.128Z,9.03
2023-05-13T04:58:58.116Z,9.04
2023-05-13T04:59:58.112Z,9.11
2023-05-13T05:00:58.103Z,9.06
2023-05-13T05:01:58.217Z,8.89
2023-05-13T05:02:58.142Z,9.14
2023-05-13T05:03:58.131Z,9.48
2023-05-13T05:04:58.058Z,9.15
2023-05-13T05:05:58.048Z,9.52
2023-05-13T05:06:58.037Z,9.26
2023-05-13T05:07:58.044Z,9.59
2023-05-13T05:08:58.012Z,9.09
2023-05-13T05:09:58.001Z,9.66
2023-05-13T05:10:57.992Z,9.70
2023-05-13T05:11:57.993Z,9.61
2023-05-13T05:12:57.978Z,9.67
2023-05-13T05:13:57.961Z,9.52
2023-05-13T05:14:57.950Z,9.54
2023-05-13T05:15:58.143Z,10.10
2023-05-13T05:16:57.969Z,9.93
2023-05-13T05:17:58.135Z,10.13
2023-05-13T05:18:57.960Z,10.25
2023-05-13T05:19:57.901Z,9.77
2023-05-13T05:20:59.280Z,9.99
2023-05-13T05:21:57.879Z,10.34
2023-05-13T05:22:57.867Z,10.10
2023-05-13T05:23:57.890Z,10.32
2023-05-13T05:24:57.846Z,10.34
2023-05-13T05:26:10.598Z,10.38
2023-05-13T05:26:58.864Z,10.46
2023-05-13T05:27:57.817Z,10.13
2023-05-13T05:28:57.805Z,10.51
2023-05-13T05:29:57.799Z,10.25
2023-05-13T05:30:57.786Z,10.44
2023-05-13T05:31:57.952Z,10.67
2023-05-13T05:32:57.835Z,10.80
2023-05-13T05:33:57.755Z,10.61
2023-05-13T05:34:57.751Z,10.74
2023-05-13T05:35:57.734Z,10.57
2023-05-13T05:36:57.724Z,11.10
2023-05-13T05:37:57.715Z,10.94
2023-05-13T05:38:57.702Z,10.72
2023-05-13T05:39:57.718Z,10.87
2023-05-13T05:40:57.685Z,11.27
2023-05-13T05:41:57.675Z,10.64
2023-05-13T05:42:57.863Z,11.01
2023-05-13T05:43:57.854Z,10.94
2023-05-13T05:44:57.639Z,11.28
2023-05-13T05:45:57.664Z,11.02
2023-05-13T05:46:57.625Z,11.10
2023-05-13T05:47:57.764Z,10.97
2023-05-13T05:49:31.391Z,10.97
2023-05-13T05:50:31.388Z,11.33
2023-05-13T05:51:31.368Z,11.36
2023-05-13T05:52:31.359Z,11.82
2023-05-13T05:53:33.100Z,11.30
2023-05-13T05:54:31.341Z,11.56
2023-05-13T05:55:31.344Z,11.63
2023-05-13T05:56:31.320Z,11.57
2023-05-13T05:57:31.300Z,11.26
2023-05-13T05:58:31.295Z,11.33
2023-05-13T05:59:31.282Z,11.82
2023-05-13T06:00:31.273Z,11.78
2023-05-13T06:01:31.266Z,11.54
2023-05-13T06:02:31.293Z,11.78
2023-05-13T06:03:31.312Z,12.11
2023-05-13T06:04:31.308Z,12.07
2023-05-13T06:05:31.220Z,12.06
2023-05-13T06:06:31.251Z,12.33
2023-05-13T06:07:31.197Z,12.70
2023-05-13T06:08:31.250Z,13.31
2023-05-13T06:09:31.180Z,12.89
2023-05-13T06:10:31.168Z,13.54
2023-05-13T06:11:31.173Z,13.98
2023-05-13T06:12:31.146Z,14.31
2023-05-13T06:13:31.133Z,14.16
2023-05-13T06:14:31.122Z,14.71
2023-05-13T06:15:31.113Z,15.03
2023-05-13T06:16:31.160Z,15.37
2023-05-13T06:17:31.125Z,15.45
2023-05-13T06:18:31.144Z,15.91
2023-05-13T06:19:31.125Z,16.06
2023-05-13T06:20:31.066Z,15.93
2023-05-13T06:21:31.048Z,16.31
2023-05-13T06:22:31.043Z,16.51
2023-05-13T06:23:31.228Z,16.66
2023-05-13T06:24:31.018Z,16.66
2023-05-13T06:25:31.007Z,17.06
2023-05-13T06:26:30.996Z,16.53
2023-05-13T06:27:31.003Z,16.80
2023-05-13T06:28:30.980Z,16.33
2023-05-13T06:29:30.962Z,15.53
2023-05-13T06:30:30.956Z,15.48
2023-05-13T06:31:30.958Z,14.89
2023-05-13T06:32:30.968Z,14.97
2023-05-13T06:33:30.978Z,14.59
2023-05-13T06:34:30.924Z,14.61
2023-05-13T06:35:30.953Z,14.61
2023-05-13T06:36:30.886Z,14.30
2023-05-13T06:37:30.878Z,14.09
2023-05-13T06:38:32.369Z,13.97
2023-05-13T06:39:30.857Z,14.66
2023-05-13T06:40:31.054Z,15.55
2023-05-13T06:41:30.841Z,15.99
2023-05-13T06:42:30.829Z,16.43
2023-05-13T06:43:30.853Z,17.09
2023-05-13T06:44:31.008Z,17.24
2023-05-13T06:45:30.815Z,16.91
2023-05-13T06:46:30.825Z,16.62
2023-05-13T06:47:30.786Z,17.21
2023-05-13T06:48:30.777Z,17.22
2023-05-13T06:49:30.749Z,17.35
2023-05-13T06:50:30.746Z,17.22
2023-05-13T06:51:30.732Z,17.15
2023-05-13T06:52:30.722Z,17.40
2023-05-13T06:53:30.721Z,16.61
2023-05-13T06:54:30.709Z,17.12
2023-05-13T06:55:30.691Z,17.00
2023-05-13T06:56:30.680Z,17.36
2023-05-13T06:57:41.289Z,17.58
2023-05-13T06:58:31.687Z,17.30
2023-05-13T06:59:30.670Z,17.43
2023-05-13T07:00:30.636Z,17.45
2023-05-13T07:01:30.834Z,17.38
2023-05-13T07:02:30.684Z,17.60
2023-05-13T07:03:30.673Z,17.61
2023-05-13T07:04:30.657Z,17.73
2023-05-13T07:05:30.586Z,17.73
2023-05-13T07:06:30.575Z,17.70
2023-05-13T07:07:30.760Z,17.91
2023-05-13T07:08:30.549Z,17.62
2023-05-13T07:09:30.546Z,17.64
2023-05-13T07:10:30.529Z,17.46
2023-05-13T07:11:30.513Z,17.83
2023-05-13T07:12:30.508Z,17.83
2023-05-13T07:13:30.499Z,18.06
2023-05-13T07:14:30.485Z,18.18
2023-05-13T07:15:30.499Z,18.24
2023-05-13T07:16:30.466Z,18.91
2023-05-13T07:17:30.567Z,18.84
2023-05-13T07:18:30.510Z,19.20
2023-05-13T07:19:30.431Z,19.15
2023-05-13T07:20:30.448Z,18.54
2023-05-13T07:21:30.415Z,19.02
2023-05-13T07:22:30.401Z,19.26
2023-05-13T07:23:30.390Z,19.46
2023-05-13T07:24:30.379Z,19.45
2023-05-13T07:25:30.380Z,19.57
2023-05-13T07:26:30.364Z,19.76
2023-05-13T07:27:30.348Z,19.85
2023-05-13T07:28:30.338Z,19.97
2023-05-13T07:29:30.328Z,20.40
2023-05-13T07:30:30.366Z,20.12
2023-05-13T07:31:30.339Z,19.78
2023-05-13T07:32:30.307Z,19.19
2023-05-13T07:33:30.283Z,18.99
2023-05-13T07:34:30.279Z,19.23
2023-05-13T07:35:30.263Z,19.51
2023-05-13T07:36:30.257Z,18.83
2023-05-13T07:37:30.242Z,18.96
2023-05-13T07:38:30.239Z,19.26
2023-05-13T07:39:30.226Z,19.85
2023-05-13T07:40:30.217Z,20.42
2023-05-13T07:41:30.208Z,20.31
2023-05-13T07:42:30.212Z,20.63
2023-05-13T07:43:30.183Z,20.00
2023-05-13T07:44:30.184Z,20.07
2023-05-13T07:45:30.162Z,20.22
2023-05-13T07:46:30.181Z,19.87
2023-05-13T07:47:30.426Z,19.97
2023-05-13T07:48:30.137Z,20.07
2023-05-13T07:49:30.135Z,20.52
2023-05-13T07:50:30.111Z,19.94
2023-05-13T07:51:30.102Z,19.08
2023-05-13T07:52:30.094Z,18.94
2023-05-13T07:53:30.082Z,18.66
2023-05-13T07:54:30.083Z,18.32
2023-05-13T07:55:30.061Z,18.53
2023-05-13T07:56:30.063Z,18.69
2023-05-13T07:57:30.044Z,18.96
2023-05-13T07:58:30.039Z,19.60
2023-05-13T07:59:30.032Z,19.52
2023-05-13T08:00:30.021Z,20.52
2023-05-13T08:01:30.009Z,20.77
2023-05-13T08:02:30.121Z,21.02
2023-05-13T08:03:30.183Z,20.96
2023-05-13T08:04:29.997Z,21.08
2023-05-13T08:05:29.958Z,21.15
2023-05-13T08:06:29.949Z,20.75
2023-05-13T08:07:29.941Z,21.24
2023-05-13T08:08:29.930Z,21.63
2023-05-13T08:09:29.917Z,21.71
2023-05-13T08:10:29.908Z,21.56
2023-05-13T08:11:29.898Z,21.66
2023-05-13T08:12:29.888Z,21.43
2023-05-13T08:13:29.877Z,21.63
2023-05-13T08:14:29.870Z,21.12
2023-05-13T08:15:29.857Z,21.24
2023-05-13T08:16:29.871Z,21.48
2023-05-13T08:17:29.846Z,21.48
2023-05-13T08:18:29.882Z,21.70
2023-05-13T08:19:29.839Z,21.22
2023-05-13T08:20:30.149Z,21.42
2023-05-13T08:21:29.802Z,21.37
2023-05-13T08:22:29.789Z,21.05
2023-05-13T08:23:43.405Z,20.67
2023-05-13T08:24:30.797Z,20.33
2023-05-13T08:25:29.756Z,20.59
2023-05-13T08:26:29.748Z,21.10
2023-05-13T08:27:29.742Z,20.75
2023-05-13T08:28:29.729Z,20.99
2023-05-13T08:29:29.712Z,20.99
2023-05-13T08:30:29.706Z,20.95
2023-05-13T08:31:29.751Z,20.74
2023-05-13T08:32:29.726Z,21.31
2023-05-13T08:33:29.678Z,21.37
2023-05-13T08:34:29.667Z,22.03
2023-05-13T08:35:29.672Z,21.92
2023-05-13T08:36:29.644Z,21.55
2023-05-13T08:37:29.847Z,21.56
2023-05-13T08:38:29.623Z,21.26
2023-05-13T08:39:29.611Z,21.26
2023-05-13T08:40:29.601Z,21.19
2023-05-13T08:41:29.595Z,21.64
2023-05-13T08:42:29.779Z,21.12
2023-05-13T08:43:29.567Z,21.26
2023-05-13T08:44:29.568Z,21.48
2023-05-13T08:45:29.573Z,21.48
2023-05-13T08:46:29.699Z,21.90
2023-05-13T08:47:29.582Z,22.05
2023-05-13T08:48:29.517Z,22.47
2023-05-13T08:49:29.507Z,22.81
2023-05-13T08:50:29.513Z,22.78
2023-05-13T08:51:29.559Z,22.55
2023-05-13T08:52:29.479Z,22.51
2023-05-13T08:53:29.562Z,21.93
2023-05-13T08:54:29.464Z,21.53
2023-05-13T08:55:29.447Z,21.61
2023-05-13T08:56:29.444Z,21.81
2023-05-13T08:57:29.442Z,21.93
2023-05-13T08:58:29.419Z,21.82
2023-05-13T08:59:29.411Z,22.10
2023-05-13T09:00:29.417Z,22.03
2023-05-13T09:01:29.407Z,21.92
2023-05-13T09:02:29.417Z,22.01
2023-05-13T09:03:29.374Z,21.92
2023-05-13T09:04:29.382Z,21.95
2023-05-13T09:05:29.389Z,22.30
2023-05-13T09:06:29.341Z,22.67
2023-05-13T09:07:29.352Z,22.35
2023-05-13T09:08:29.321Z,21.98
2023-05-13T09:09:29.309Z,21.90
2023-05-13T09:10:29.302Z,22.34
2023-05-13T09:11:29.294Z,22.44
2023-05-13T09:12:29.283Z,22.67
2023-05-13T09:13:29.266Z,23.16
2023-05-13T09:14:29.261Z,23.16
2023-05-13T09:15:29.257Z,23.22
2023-05-13T09:16:29.380Z,23.46
2023-05-13T09:17:30.849Z,23.51
2023-05-13T09:18:29.568Z,23.44
2023-05-13T09:19:29.336Z,23.36
2023-05-13T09:20:29.217Z,23.09
2023-05-13T09:21:29.198Z,22.34
2023-05-13T09:22:29.200Z,21.92
2023-05-13T09:23:29.185Z,22.01
2023-05-13T09:24:29.157Z,21.68
2023-05-13T09:25:29.166Z,21.27
2023-05-13T09:26:29.136Z,21.11
2023-05-13T09:27:29.132Z,21.43
2023-05-13T09:28:29.125Z,21.27
2023-05-13T09:29:29.199Z,21.04
2023-05-13T09:30:29.097Z,21.04
2023-05-13T09:31:29.123Z,21.40
2023-05-13T09:32:29.095Z,21.56
2023-05-13T09:33:29.064Z,21.59
2023-05-13T09:34:29.065Z,21.66
2023-05-13T09:35:29.047Z,21.75
2023-05-13T09:36:30.535Z,21.92
2023-05-13T09:37:29.023Z,21.52
2023-05-13T09:38:29.078Z,21.46
2023-05-13T09:39:29.207Z,21.74
2023-05-13T09:40:28.995Z,21.53
2023-05-13T09:41:28.987Z,21.46
2023-05-13T09:42:28.976Z,21.61
2023-05-13T09:43:28.985Z,22.10
2023-05-13T09:44:28.957Z,22.00
2023-05-13T09:45:28.944Z,21.97
2023-05-13T09:46:28.965Z,21.79
2023-05-13T09:47:28.956Z,22.22
2023-05-13T09:48:28.929Z,22.67
2023-05-13T09:49:28.908Z,22.66
2023-05-13T09:50:28.897Z,22.74
2023-05-13T09:51:28.884Z,22.76
2023-05-13T09:52:28.872Z,23.22
2023-05-13T09:53:28.903Z,23.71
2023-05-13T09:54:29.481Z,23.52
2023-05-13T09:55:28.863Z,23.16
2023-05-13T09:56:28.835Z,22.82
2023-05-13T09:57:28.831Z,22.11
2023-05-13T09:58:28.825Z,22.35
2023-05-13T09:59:28.851Z,22.61
2023-05-13T10:00:32.724Z,22.51
2023-05-13T10:01:28.901Z,22.78
2023-05-13T10:02:28.795Z,22.78
2023-05-13T10:03:28.876Z,22.82
2023-05-13T10:04:28.895Z,23.22
2023-05-13T10:05:28.752Z,23.16
2023-05-13T10:06:28.735Z,23.63
2023-05-13T10:07:28.728Z,23.07
2023-05-13T10:08:28.717Z,23.61
2023-05-13T10:09:28.706Z,23.95
2023-05-13T10:10:28.697Z,23.53
2023-05-13T10:11:28.916Z,23.70
2023-05-13T10:12:28.679Z,23.99
2023-05-13T10:13:28.676Z,23.83
2023-05-13T10:14:28.655Z,23.96
2023-05-13T10:15:28.652Z,23.41
2023-05-13T10:16:28.680Z,23.01
2023-05-13T10:17:28.655Z,22.85
2023-05-13T10:18:28.645Z,22.60
2023-05-13T10:19:28.610Z,22.74
2023-05-13T10:20:28.602Z,22.66
2023-05-13T10:21:28.594Z,23.04
2023-05-13T10:22:28.580Z,23.46
2023-05-13T10:23:28.569Z,23.38
2023-05-13T10:24:28.555Z,23.48
2023-05-13T10:25:28.548Z,23.73
2023-05-13T10:26:28.537Z,23.68
2023-05-13T10:27:28.559Z,23.55
2023-05-13T10:28:28.524Z,23.56
2023-05-13T10:29:28.525Z,23.62
2023-05-13T10:30:28.490Z,23.73
2023-05-13T10:31:28.512Z,23.98
2023-05-13T10:32:28.505Z,23.86
2023-05-13T10:33:28.463Z,23.91
2023-05-13T10:34:28.451Z,23.81
2023-05-13T10:35:28.442Z,23.86
2023-05-13T10:36:28.432Z,23.89
2023-05-13T10:37:28.426Z,23.96
2023-05-13T10:38:28.418Z,24.21
2023-05-13T10:39:28.406Z,24.33
2023-05-13T10:40:28.390Z,24.60
2023-05-13T10:41:28.381Z,24.31
2023-05-13T10:42:28.373Z,24.52
2023-05-13T10:43:28.381Z,24.36
2023-05-13T10:44:28.348Z,23.70
2023-05-13T10:45:29.892Z,23.36
2023-05-13T10:46:29.976Z,23.18
2023-05-13T10:47:28.420Z,23.46
2023-05-13T10:48:28.387Z,23.52
2023-05-13T10:49:28.303Z,24.16
2023-05-13T10:50:28.291Z,24.29
2023-05-13T10:51:28.284Z,23.81
2023-05-13T10:52:28.272Z,23.98
2023-05-13T10:53:28.270Z,24.19
2023-05-13T10:54:28.252Z,24.48
2023-05-13T10:55:28.242Z,24.86
2023-05-13T10:56:28.278Z,24.79
2023-05-13T10:57:28.222Z,24.79
2023-05-13T10:58:28.224Z,24.29
2023-05-13T10:59:28.374Z,23.78
2023-05-13T11:00:28.194Z,23.51
2023-05-13T11:01:28.281Z,23.77
2023-05-13T11:02:28.281Z,23.93
2023-05-13T11:03:29.289Z,24.19
2023-05-13T11:04:28.158Z,24.29
2023-05-13T11:05:28.146Z,24.45
2023-05-13T11:06:28.137Z,24.19
2023-05-13T11:07:28.128Z,24.29
2023-05-13T11:08:28.119Z,24.18
2023-05-13T11:09:28.109Z,24.23
2023-05-13T11:10:28.306Z,24.34
2023-05-13T11:11:28.095Z,24.36
2023-05-13T11:12:28.081Z,24.34
2023-05-13T11:13:28.071Z,24.51
2023-05-13T11:14:28.064Z,24.52
2023-05-13T11:15:28.071Z,24.37
2023-05-13T11:16:28.080Z,24.23
2023-05-13T11:17:28.071Z,24.31
2023-05-13T11:18:28.032Z,24.71
2023-05-13T11:19:28.014Z,24.52
2023-05-13T11:20:28.004Z,24.55
2023-05-13T11:21:28.002Z,24.49
2023-05-13T11:22:27.984Z,24.29
2023-05-13T11:23:28.190Z,24.48
2023-05-13T11:24:27.968Z,23.99
2023-05-13T11:25:27.956Z,23.81
2023-05-13T11:26:27.945Z,24.39
2023-05-13T11:27:27.936Z,24.91
2023-05-13T11:28:27.925Z,24.93
2023-05-13T11:29:27.923Z,24.39
2023-05-13T11:30:27.903Z,24.76
2023-05-13T11:31:27.968Z,24.64
2023-05-13T11:32:27.941Z,24.82
2023-05-13T11:33:27.877Z,25.60
2023-05-13T11:34:27.870Z,26.30
2023-05-13T11:35:27.859Z,26.19
2023-05-13T11:36:27.845Z,26.41
2023-05-13T11:37:27.837Z,26.04
2023-05-13T11:38:27.830Z,26.26
2023-05-13T11:39:27.825Z,26.65
2023-05-13T11:40:27.823Z,26.56
2023-05-13T11:41:27.803Z,26.58
2023-05-13T11:42:27.789Z,26.22
2023-05-13T11:43:27.777Z,26.09
2023-05-13T11:44:27.767Z,26.28
2023-05-13T11:45:27.756Z,26.06
2023-05-13T11:46:27.995Z,25.91
2023-05-13T11:47:27.795Z,25.97
2023-05-13T11:48:27.725Z,26.13
2023-05-13T11:49:27.720Z,25.82
2023-05-13T11:50:27.706Z,25.41
2023-05-13T11:51:27.697Z,25.93
2023-05-13T11:52:27.684Z,26.19
2023-05-13T11:53:27.682Z,26.13
2023-05-13T11:54:27.665Z,26.15
2023-05-13T11:55:27.664Z,26.31
2023-05-13T11:56:27.644Z,27.33
2023-05-13T11:57:27.663Z,27.11
2023-05-13T11:58:27.632Z,27.64
2023-05-13T11:59:33.364Z,27.40
2023-05-13T12:00:28.649Z,27.01
2023-05-13T12:01:27.599Z,27.45
2023-05-13T12:02:27.673Z,27.45
2023-05-13T12:03:27.636Z,27.28
2023-05-13T12:04:27.569Z,27.02
2023-05-13T12:05:27.955Z,26.75
2023-05-13T12:06:27.551Z,26.00
2023-05-13T12:07:27.542Z,25.21
2023-05-13T12:08:27.533Z,24.83
2023-05-13T12:09:27.549Z,23.73
2023-05-13T12:10:27.522Z,23.44
2023-05-13T12:11:27.522Z,23.16
2023-05-13T12:12:27.493Z,22.84
2023-05-13T12:13:27.484Z,22.81
2023-05-13T12:14:27.891Z,23.36
2023-05-13T12:15:27.461Z,24.21
2023-05-13T12:16:27.515Z,24.85
2023-05-13T12:17:27.450Z,25.69
2023-05-13T12:18:27.461Z,26.15
2023-05-13T12:19:27.447Z,26.37
2023-05-13T12:20:27.411Z,25.13
2023-05-13T12:21:27.403Z,24.37
2023-05-13T12:22:27.389Z,23.30
2023-05-13T12:23:27.429Z,23.11
2023-05-13T12:24:27.371Z,22.91
2023-05-13T12:25:27.361Z,23.25
2023-05-13T12:26:27.352Z,23.62
2023-05-13T12:27:27.343Z,24.27
2023-05-13T12:28:27.335Z,24.60
2023-05-13T12:29:27.322Z,24.46
2023-05-13T12:30:27.314Z,24.64
2023-05-13T12:31:27.392Z,25.30
2023-05-13T12:32:27.340Z,26.00
2023-05-13T12:33:27.289Z,26.34
2023-05-13T12:34:27.275Z,26.37
2023-05-13T12:35:27.273Z,26.48
2023-05-13T12:36:27.269Z,26.68
2023-05-13T12:37:27.240Z,27.11
2023-05-13T12:38:27.229Z,27.11
2023-05-13T12:39:27.224Z,27.35
2023-05-13T12:40:27.213Z,27.76
2023-05-13T12:41:27.205Z,28.30
2023-05-13T12:42:27.193Z,28.05
2023-05-13T12:43:27.179Z,27.70
2023-05-13T12:44:27.170Z,26.38
2023-05-13T12:45:27.162Z,24.81
2023-05-13T12:46:27.167Z,24.46
2023-05-13T12:47:27.159Z,24.97
2023-05-13T12:48:27.185Z,25.37
2023-05-13T12:49:27.128Z,26.04
2023-05-13T12:50:27.110Z,26.31
2023-05-13T12:51:27.129Z,26.53
2023-05-13T12:52:27.095Z,25.61
2023-05-13T12:53:27.077Z,24.92
2023-05-13T12:54:27.080Z,24.48
2023-05-13T12:55:27.062Z,23.46
2023-05-13T12:56:27.050Z,23.21
2023-05-13T12:57:27.038Z,23.49
2023-05-13T12:58:27.026Z,24.30
2023-05-13T12:59:27.020Z,25.29
2023-05-13T13:00:27.009Z,25.41
2023-05-13T13:01:27.008Z,25.40
2023-05-13T13:02:27.041Z,25.89
2023-05-13T13:03:27.060Z,26.52
2023-05-13T13:04:26.973Z,27.33
2023-05-13T13:05:26.962Z,27.38
2023-05-13T13:06:26.942Z,27.43
2023-05-13T13:07:26.963Z,26.56
2023-05-13T13:08:28.335Z,25.94
2023-05-13T13:09:26.916Z,25.37
2023-05-13T13:10:26.910Z,24.46
2023-05-13T13:11:26.902Z,24.26
2023-05-13T13:12:26.894Z,23.44
2023-05-13T13:13:26.878Z,23.30
2023-05-13T13:14:26.905Z,23.01
2023-05-13T13:15:26.856Z,22.66
2023-05-13T13:16:26.883Z,22.34
2023-05-13T13:17:26.858Z,22.41
2023-05-13T13:18:26.879Z,22.14
2023-05-13T13:19:26.946Z,21.98
2023-05-13T13:20:26.810Z,22.55
2023-05-13T13:21:26.792Z,23.25
2023-05-13T13:22:26.814Z,23.88
2023-05-13T13:23:27.244Z,24.56
2023-05-13T13:24:26.772Z,24.88
2023-05-13T13:25:26.758Z,25.64
2023-05-13T13:26:26.744Z,26.22
2023-05-13T13:27:26.732Z,26.43
2023-05-13T13:28:26.725Z,26.97
2023-05-13T13:29:26.712Z,27.06
2023-05-13T13:30:26.704Z,27.46
2023-05-13T13:31:26.716Z,27.53
2023-05-13T13:32:26.839Z,27.53
2023-05-13T13:33:26.681Z,27.68
2023-05-13T13:34:26.662Z,28.13
2023-05-13T13:35:26.650Z,28.12
2023-05-13T13:36:26.635Z,28.32
2023-05-13T13:37:26.627Z,27.76
2023-05-13T13:38:26.620Z,27.97
2023-05-13T13:39:26.644Z,28.58
2023-05-13T13:40:26.598Z,28.76
2023-05-13T13:41:26.599Z,28.83
2023-05-13T13:42:36.822Z,29.31
2023-05-13T13:43:27.597Z,28.33
2023-05-13T13:44:28.021Z,28.02
2023-05-13T13:45:26.546Z,28.08
2023-05-13T13:46:26.581Z,27.97
2023-05-13T13:47:26.565Z,28.26
2023-05-13T13:48:26.515Z,27.92
2023-05-13T13:49:26.507Z,26.72
2023-05-13T13:50:26.498Z,26.16
2023-05-13T13:51:26.493Z,25.23
2023-05-13T13:52:26.477Z,24.21
2023-05-13T13:53:26.469Z,23.86
2023-05-13T13:54:26.457Z,23.68
2023-05-13T13:55:26.545Z,22.99
2023-05-13T13:56:26.439Z,22.79
2023-05-13T13:57:26.428Z,22.44
2023-05-13T13:58:26.417Z,22.64
2023-05-13T13:59:26.424Z,22.96
2023-05-13T14:00:26.403Z,24.08
2023-05-13T14:01:26.487Z,25.03
2023-05-13T14:02:26.432Z,25.49
2023-05-13T14:03:26.571Z,26.59
2023-05-13T14:04:26.362Z,27.28
2023-05-13T14:05:26.344Z,28.20
2023-05-13T14:06:26.339Z,27.76
2023-05-13T14:07:26.343Z,27.92
2023-05-13T14:08:26.324Z,27.61
2023-05-13T14:09:26.321Z,27.42
2023-05-13T14:10:26.500Z,26.75
2023-05-13T14:11:26.310Z,25.96
2023-05-13T14:12:26.276Z,25.22
2023-05-13T14:13:26.290Z,24.29
2023-05-13T14:14:26.258Z,24.02
2023-05-13T14:15:26.243Z,23.48
2023-05-13T14:16:26.284Z,22.97
2023-05-13T14:17:26.294Z,22.64
2023-05-13T14:18:26.277Z,22.40
2023-05-13T14:19:26.220Z,22.44
2023-05-13T14:20:26.198Z,22.30
2023-05-13T14:21:26.187Z,22.23
2023-05-13T14:22:26.381Z,22.04
2023-05-13T14:23:26.167Z,22.00
2023-05-13T14:24:26.157Z,22.30
2023-05-13T14:25:26.145Z,22.03
2023-05-13T14:26:26.140Z,22.11
2023-05-13T14:27:26.149Z,21.97
2023-05-13T14:28:26.112Z,22.69
2023-05-13T14:29:26.113Z,23.89
2023-05-13T14:30:26.092Z,24.49
2023-05-13T14:31:26.317Z,25.54
2023-05-13T14:32:26.121Z,26.03
2023-05-13T14:33:26.064Z,25.91
2023-05-13T14:34:26.057Z,25.48
2023-05-13T14:35:26.044Z,24.06
2023-05-13T14:36:26.035Z,24.49
2023-05-13T14:37:26.035Z,24.85
2023-05-13T14:38:27.614Z,24.16
2023-05-13T14:39:26.001Z,24.02
2023-05-13T14:40:26.000Z,23.89
2023-05-13T14:41:25.976Z,23.48
2023-05-13T14:42:25.975Z,23.03
2023-05-13T14:43:25.986Z,22.89
2023-05-13T14:44:25.949Z,22.67
2023-05-13T14:45:25.937Z,22.50
2023-05-13T14:46:25.995Z,22.63
2023-05-13T14:47:25.923Z,22.56
2023-05-13T14:48:25.905Z,22.25
2023-05-13T14:49:25.905Z,22.29
2023-05-13T14:50:25.885Z,21.98
2023-05-13T14:51:25.873Z,21.89
2023-05-13T14:52:59.654Z,21.89
2023-05-13T14:53:59.648Z,21.86
2023-05-13T14:54:59.641Z,21.90
2023-05-13T14:55:59.623Z,21.63
2023-05-13T14:56:59.608Z,21.19
2023-05-13T14:57:59.600Z,20.78
2023-05-13T14:58:59.611Z,20.96
2023-05-13T15:00:00.228Z,20.90
2023-05-13T15:00:59.625Z,20.50
2023-05-13T15:01:59.569Z,20.20
2023-05-13T15:02:59.617Z,20.04
2023-05-13T15:03:59.547Z,19.66
2023-05-13T15:04:59.552Z,19.69
2023-05-13T15:05:59.525Z,19.52
2023-05-13T15:06:59.542Z,19.79
2023-05-13T15:07:59.493Z,19.69
2023-05-13T15:08:59.501Z,19.61
2023-05-13T15:09:59.472Z,19.66
2023-05-13T15:10:59.458Z,19.63
2023-05-13T15:11:59.458Z,19.87
2023-05-13T15:12:59.439Z,19.60
2023-05-13T15:13:59.428Z,19.83
2023-05-13T15:14:59.435Z,20.13
2023-05-13T15:15:59.414Z,19.56
2023-05-13T15:16:59.416Z,19.60
2023-05-13T15:17:59.426Z,19.80
2023-05-13T15:18:59.404Z,19.61
2023-05-13T15:19:59.369Z,19.89
2023-05-13T15:20:59.363Z,19.92
2023-05-13T15:21:59.349Z,19.78
2023-05-13T15:22:59.343Z,20.01
2023-05-13T15:23:59.328Z,19.80
2023-05-13T15:24:59.318Z,19.26
2023-05-13T15:25:59.309Z,19.20
2023-05-13T15:26:59.298Z,19.22
2023-05-13T15:27:59.303Z,19.34
2023-05-13T15:28:59.286Z,18.54
2023-05-13T15:29:59.272Z,18.65
2023-05-13T15:30:59.297Z,18.64
2023-05-13T15:31:59.249Z,18.28
2023-05-13T15:32:59.276Z,18.38
2023-05-13T15:33:59.230Z,18.15
2023-05-13T15:34:59.218Z,18.06
2023-05-13T15:35:59.206Z,17.61
2023-05-13T15:36:59.197Z,17.40
2023-05-13T15:37:59.187Z,17.03
2023-05-13T15:39:00.161Z,17.07
2023-05-13T15:39:59.163Z,16.86
2023-05-13T15:40:59.152Z,17.20
2023-05-13T15:41:59.144Z,16.92
2023-05-13T15:42:59.133Z,17.02
2023-05-13T15:43:59.121Z,17.32
2023-05-13T15:44:59.108Z,17.00
2023-05-13T15:45:59.248Z,16.95
2023-05-13T15:46:59.227Z,17.18
2023-05-13T15:47:59.140Z,17.30
2023-05-13T15:48:59.069Z,17.58
2023-05-13T15:49:59.085Z,17.51
2023-05-13T15:50:59.059Z,17.55
2023-05-13T15:51:59.036Z,17.64
2023-05-13T15:52:59.030Z,17.91
2023-05-13T15:53:59.018Z,18.16
2023-05-13T15:54:59.002Z,18.34
2023-05-13T15:55:59.034Z,18.49
2023-05-13T15:56:59.003Z,18.42
2023-05-13T15:57:58.982Z,18.49
2023-05-13T15:58:58.962Z,18.60
2023-05-13T15:59:58.958Z,18.53
2023-05-13T16:00:58.952Z,19.02
2023-05-13T16:01:59.052Z,18.93
2023-05-13T16:02:58.957Z,19.01
2023-05-13T16:03:58.929Z,19.27
2023-05-13T16:04:58.896Z,19.05
2023-05-13T16:05:58.899Z,19.45
2023-05-13T16:06:58.878Z,19.61
2023-05-13T16:07:58.874Z,19.82
2023-05-13T16:08:58.853Z,19.66
2023-05-13T16:09:58.845Z,19.60
2023-05-13T16:10:58.839Z,19.56
2023-05-13T16:11:58.836Z,20.45
2023-05-13T16:12:58.809Z,21.36
2023-05-13T16:13:58.820Z,21.53
2023-05-13T16:14:58.795Z,20.82
2023-05-13T16:15:58.804Z,20.41
2023-05-13T16:16:58.770Z,20.30
2023-05-13T16:17:58.791Z,19.75
2023-05-13T16:18:58.813Z,19.52
2023-05-13T16:19:58.894Z,19.41
2023-05-13T16:20:58.728Z,19.12
2023-05-13T16:21:58.921Z,18.46
2023-05-13T16:22:58.707Z,18.64
2023-05-13T16:23:58.703Z,18.10
2023-05-13T16:24:58.684Z,18.36
2023-05-13T16:25:58.673Z,18.03
2023-05-13T16:26:58.662Z,17.91
2023-05-13T16:27:58.849Z,18.09
2023-05-13T16:28:58.648Z,17.93
2023-05-13T16:29:58.650Z,17.76
2023-05-13T16:30:58.846Z,17.95
2023-05-13T16:31:58.634Z,17.76
2023-05-13T16:32:58.622Z,17.70
2023-05-13T16:33:58.595Z,17.24
2023-05-13T16:34:58.595Z,17.36
2023-05-13T16:35:58.569Z,17.17
2023-05-13T16:36:59.223Z,16.92
2023-05-13T16:37:58.552Z,16.80
2023-05-13T16:38:58.532Z,16.87